Time,TemperatureF,DewpointF,PressureIn,WindDirection,WindDirectionDegrees,WindSpeedMPH,WindSpeedGustMPH,Humidity,HourlyPrecipIn,Conditions,Clouds,dailyrainin,SoftwareType,DateUTC
2013-05-21 00:02:00,52.0,48.0,29.68,WNW,292,4.0,7.0,87,0.00,,,0.22,,2013-05-21 05:02:00,
2013-05-21 00:12:00,52.0,48.0,29.68,WNW,292,4.0,7.0,87,0.00,,,0.22,,2013-05-21 05:12:00,
2013-05-21 00:22:00,52.0,48.0,29.67,WNW,288,5.0,9.0,86,0.00,,,0.22,,2013-05-21 05:22:00,
2013-05-21 00:32:00,52.0,48.0,29.67,WNW,285,5.0,9.0,85,0.00,,,0.22,,2013-05-21 05:32:00,
2013-05-21 00:42:00,53.0,48.0,29.68,WSW,252,6.0,11.0,83,0.00,,,0.22,,2013-05-21 05:42:00,
2013-05-21 00:51:00,53.0,48.0,29.68,WSW,252,6.0,11.0,83,0.00,,,0.22,,2013-05-21 05:51:00,
2013-05-21 01:02:00,52.0,47.0,29.67,NW,307,4.0,8.0,84,0.00,,,0.22,,2013-05-21 06:02:00,
2013-05-21 01:12:00,52.0,47.0,29.67,NW,307,4.0,8.0,84,0.00,,,0.22,,2013-05-21 06:12:00,
2013-05-21 01:21:00,52.0,48.0,29.67,West,271,7.0,15.0,85,0.00,,,0.21,,2013-05-21 06:21:00,
2013-05-21 01:32:00,52.0,47.0,29.68,NW,305,6.0,13.0,84,0.00,,,0.21,,2013-05-21 06:32:00,
2013-05-21 01:42:00,52.0,47.0,29.68,NW,305,6.0,13.0,84,0.00,,,0.21,,2013-05-21 06:42:00,
2013-05-21 01:52:00,52.0,47.0,29.68,WNW,300,8.0,14.0,84,0.00,,,0.21,,2013-05-21 06:52:00,
2013-05-21 02:01:00,52.0,47.0,29.69,WNW,300,7.0,14.0,84,0.00,,,0.21,,2013-05-21 07:01:00,
2013-05-21 02:11:00,52.0,47.0,29.69,WNW,300,7.0,14.0,84,0.00,,,0.21,,2013-05-21 07:11:00,
2013-05-21 02:22:00,51.0,47.0,29.69,NW,322,7.0,11.0,86,0.00,,,0.21,,2013-05-21 07:22:00,
2013-05-21 02:31:00,51.0,46.0,29.69,WNW,300,9.0,14.0,83,0.00,,,0.21,,2013-05-21 07:31:00,
2013-05-21 02:41:00,51.0,46.0,29.69,WNW,300,9.0,14.0,83,0.00,,,0.21,,2013-05-21 07:41:00,
2013-05-21 02:52:00,51.0,46.0,29.69,NW,306,9.0,14.0,82,0.00,,,0.21,,2013-05-21 07:52:00,
2013-05-21 03:02:00,51.0,46.0,29.69,WNW,284,10.0,14.0,82,0.00,,,0.21,,2013-05-21 08:02:00,
2013-05-21 03:11:00,51.0,46.0,29.69,WNW,284,10.0,14.0,82,0.00,,,0.21,,2013-05-21 08:11:00,
2013-05-21 03:21:00,51.0,45.0,29.69,WNW,297,9.0,15.0,80,0.00,,,0.20,,2013-05-21 08:21:00,
2013-05-21 03:31:00,51.0,44.0,29.69,WNW,289,13.0,23.0,78,0.00,,,0.20,,2013-05-21 08:31:00,
2013-05-21 03:41:00,50.0,44.0,29.70,NW,318,9.0,17.0,79,0.00,,,0.20,,2013-05-21 08:41:00,
2013-05-21 03:52:00,50.0,44.0,29.70,NW,318,9.0,17.0,79,0.00,,,0.20,,2013-05-21 08:52:00,
2013-05-21 04:01:00,49.0,44.0,29.70,NW,305,9.0,17.0,82,0.00,,,0.20,,2013-05-21 09:01:00,
2013-05-21 04:11:00,49.0,44.0,29.70,NW,305,9.0,17.0,82,0.00,,,0.20,,2013-05-21 09:11:00,
2013-05-21 04:21:00,49.0,44.0,29.69,WNW,302,9.0,15.0,82,0.00,,,0.20,,2013-05-21 09:21:00,
2013-05-21 04:32:00,49.0,44.0,29.70,NW,306,8.0,15.0,82,0.00,,,0.20,,2013-05-21 09:32:00,
2013-05-21 04:42:00,49.0,44.0,29.70,NW,306,8.0,15.0,82,0.00,,,0.20,,2013-05-21 09:42:00,
2013-05-21 04:52:00,49.0,44.0,29.69,NW,304,6.0,13.0,82,0.00,,,0.20,,2013-05-21 09:52:00,
2013-05-21 05:02:00,49.0,44.0,29.69,NW,306,6.0,11.0,83,0.00,,,0.20,,2013-05-21 10:02:00,
2013-05-21 05:12:00,49.0,44.0,29.69,NW,306,6.0,11.0,83,0.00,,,0.20,,2013-05-21 10:12:00,
2013-05-21 05:22:00,49.0,44.0,29.70,NW,304,6.0,11.0,82,0.00,,,0.20,,2013-05-21 10:22:00,
2013-05-21 05:32:00,49.0,44.0,29.69,WSW,258,8.0,13.0,83,0.00,,,0.20,,2013-05-21 10:32:00,
2013-05-21 05:42:00,49.0,44.0,29.69,WSW,258,8.0,13.0,83,0.00,,,0.20,,2013-05-21 10:42:00,
2013-05-21 05:52:00,49.0,44.0,29.69,WNW,293,8.0,15.0,82,0.00,,,0.20,,2013-05-21 10:52:00,
2013-05-21 06:02:00,49.0,44.0,29.70,West,280,8.0,13.0,83,0.00,,,0.20,,2013-05-21 11:02:00,
2013-05-21 06:12:00,49.0,44.0,29.70,West,280,8.0,13.0,83,0.00,,,0.20,,2013-05-21 11:12:00,
2013-05-21 06:21:00,49.0,44.0,29.70,WNW,293,11.0,16.0,83,0.00,,,0.19,,2013-05-21 11:21:00,
2013-05-21 06:32:00,49.0,44.0,29.70,WNW,283,8.0,15.0,84,0.00,,,0.19,,2013-05-21 11:32:00,
2013-05-21 06:41:00,49.0,44.0,29.70,WNW,283,8.0,15.0,84,0.00,,,0.19,,2013-05-21 11:41:00,
2013-05-21 06:51:00,49.0,44.0,29.70,WNW,296,8.0,15.0,82,0.00,,,0.19,,2013-05-21 11:51:00,
2013-05-21 07:01:00,50.0,44.0,29.71,WNW,289,11.0,17.0,80,0.00,,,0.19,,2013-05-21 12:01:00,
2013-05-21 07:11:00,50.0,44.0,29.71,WNW,289,11.0,17.0,80,0.00,,,0.19,,2013-05-21 12:11:00,
2013-05-21 07:21:00,50.0,43.0,29.72,WNW,290,9.0,18.0,78,0.00,,,0.19,,2013-05-21 12:21:00,
2013-05-21 07:32:00,51.0,44.0,29.72,NW,311,12.0,18.0,76,0.00,,,0.19,,2013-05-21 12:32:00,
2013-05-21 07:42:00,51.0,44.0,29.72,NW,311,12.0,18.0,76,0.00,,,0.19,,2013-05-21 12:42:00,
2013-05-21 07:51:00,50.0,42.0,29.74,NW,305,10.0,22.0,74,0.00,,,0.19,,2013-05-21 12:51:00,
2013-05-21 08:01:00,51.0,43.0,29.74,WSW,240,13.0,22.0,73,0.00,,,0.19,,2013-05-21 13:01:00,
2013-05-21 08:12:00,51.0,43.0,29.74,WSW,240,13.0,22.0,73,0.00,,,0.19,,2013-05-21 13:12:00,
2013-05-21 08:22:00,51.0,42.0,29.73,NNW,338,10.0,23.0,72,0.00,,,0.18,,2013-05-21 13:22:00,
2013-05-21 08:32:00,52.0,43.0,29.72,West,281,8.0,21.0,72,0.00,,,0.18,,2013-05-21 13:32:00,
2013-05-21 08:41:00,52.0,43.0,29.72,West,281,8.0,21.0,72,0.00,,,0.18,,2013-05-21 13:41:00,
2013-05-21 08:52:00,52.0,43.0,29.73,WNW,299,10.0,26.0,71,0.00,,,0.18,,2013-05-21 13:52:00,
2013-05-21 09:01:00,53.0,43.0,29.73,WNW,301,12.0,27.0,70,0.00,,,0.18,,2013-05-21 14:01:00,
2013-05-21 09:11:00,53.0,43.0,29.73,WNW,301,12.0,27.0,70,0.00,,,0.18,,2013-05-21 14:11:00,
2013-05-21 09:21:00,54.0,44.0,29.73,WNW,295,18.0,28.0,68,0.00,,,0.18,,2013-05-21 14:21:00,
2013-05-21 09:32:00,54.0,44.0,29.73,NW,317,10.0,22.0,70,0.00,,,0.18,,2013-05-21 14:32:00,
2013-05-21 09:41:00,54.0,44.0,29.73,NW,317,10.0,22.0,70,0.00,,,0.18,,2013-05-21 14:41:00,
2013-05-21 09:51:00,55.0,45.0,29.73,WNW,290,15.0,26.0,69,0.00,,,0.18,,2013-05-21 14:51:00,
2013-05-21 10:01:00,56.0,45.0,29.72,NW,309,18.0,25.0,66,0.00,,,0.18,,2013-05-21 15:01:00,
2013-05-21 10:11:00,56.0,45.0,29.72,NW,309,18.0,25.0,66,0.00,,,0.18,,2013-05-21 15:11:00,
2013-05-21 10:21:00,55.0,44.0,29.72,NNW,340,15.0,26.0,66,0.00,,,0.17,,2013-05-21 15:21:00,
2013-05-21 10:33:00,55.0,44.0,29.72,WNW,287,10.0,25.0,67,0.00,,,0.17,,2013-05-21 15:33:00,
2013-05-21 10:42:00,56.0,45.0,29.72,WNW,295,16.0,27.0,66,0.00,,,0.17,,2013-05-21 15:42:00,
2013-05-21 10:52:00,56.0,45.0,29.72,WNW,295,16.0,27.0,66,0.00,,,0.17,,2013-05-21 15:52:00,
2013-05-21 11:03:00,56.0,45.0,29.72,WNW,295,16.0,27.0,66,0.00,,,0.17,,2013-05-21 16:03:00,
2013-05-21 11:12:00,56.0,45.0,29.72,WNW,295,16.0,27.0,66,0.00,,,0.17,,2013-05-21 16:12:00,
2013-05-21 11:23:00,56.0,46.0,29.72,West,277,11.0,20.0,68,0.00,,,0.16,,2013-05-21 16:23:00,
2013-05-21 11:32:00,55.0,46.0,29.72,WNW,297,10.0,16.0,71,0.00,,,0.16,,2013-05-21 16:32:00,
2013-05-21 11:42:00,57.0,47.0,29.72,North,355,12.0,23.0,68,0.00,,,0.16,,2013-05-21 16:42:00,
2013-05-21 11:52:00,57.0,47.0,29.72,North,355,12.0,23.0,68,0.00,,,0.16,,2013-05-21 16:52:00,
2013-05-21 12:02:00,57.0,45.0,29.71,NW,318,12.0,22.0,65,0.00,,,0.16,,2013-05-21 17:02:00,
2013-05-21 12:12:00,57.0,45.0,29.71,NW,318,12.0,22.0,65,0.00,,,0.16,,2013-05-21 17:12:00,
2013-05-21 12:23:00,58.0,44.0,29.72,NNE,21,12.0,25.0,60,0.00,,,0.00,,2013-05-21 17:23:00,
2013-05-21 12:32:00,58.0,43.0,29.72,North,360,13.0,28.0,58,0.00,,,0.00,,2013-05-21 17:32:00,
2013-05-21 12:43:00,57.0,44.0,29.71,NW,308,13.0,26.0,61,0.00,,,0.00,,2013-05-21 17:43:00,
2013-05-21 12:52:00,57.0,44.0,29.71,NW,308,13.0,26.0,61,0.00,,,0.00,,2013-05-21 17:52:00,
2013-05-21 13:02:00,58.0,44.0,29.71,North,11,15.0,28.0,59,0.00,,,0.00,,2013-05-21 18:02:00,
2013-05-21 13:12:00,58.0,44.0,29.71,North,11,15.0,28.0,59,0.00,,,0.00,,2013-05-21 18:12:00,
2013-05-21 13:22:00,58.0,45.0,29.71,WNW,283,13.0,30.0,61,0.00,,,0.00,,2013-05-21 18:22:00,
2013-05-21 13:32:00,59.0,44.0,29.71,NE,36,13.0,27.0,58,0.00,,,0.00,,2013-05-21 18:32:00,
2013-05-21 13:42:00,59.0,44.0,29.71,NW,315,10.0,29.0,58,0.00,,,0.00,,2013-05-21 18:42:00,
2013-05-21 13:51:00,59.0,44.0,29.71,NW,315,10.0,29.0,58,0.00,,,0.00,,2013-05-21 18:51:00,
2013-05-21 14:01:00,58.0,43.0,29.70,NW,307,15.0,30.0,58,0.00,,,0.00,,2013-05-21 19:01:00,
2013-05-21 14:11:00,58.0,43.0,29.70,NW,307,15.0,30.0,58,0.00,,,0.00,,2013-05-21 19:11:00,
2013-05-21 14:21:00,59.0,44.0,29.71,NW,315,10.0,24.0,58,0.00,,,0.00,,2013-05-21 19:21:00,
2013-05-21 14:32:00,60.0,46.0,29.72,North,5,12.0,30.0,59,0.00,,,0.00,,2013-05-21 19:32:00,
2013-05-21 14:42:00,60.0,46.0,29.72,North,5,12.0,30.0,59,0.00,,,0.00,,2013-05-21 19:42:00,
2013-05-21 14:52:00,59.0,44.0,29.72,NNW,340,13.0,23.0,58,0.00,,,0.00,,2013-05-21 19:52:00,
2013-05-21 15:03:00,59.0,45.0,29.72,NNE,15,12.0,28.0,59,0.00,,,0.00,,2013-05-21 20:03:00,
2013-05-21 15:11:00,59.0,45.0,29.72,NNE,15,12.0,28.0,59,0.00,,,0.00,,2013-05-21 20:11:00,
2013-05-21 15:22:00,59.0,45.0,29.72,North,9,10.0,21.0,59,0.00,,,0.00,,2013-05-21 20:22:00,
2013-05-21 15:32:00,59.0,45.0,29.72,North,360,13.0,22.0,59,0.00,,,0.00,,2013-05-21 20:32:00,
2013-05-21 15:42:00,59.0,45.0,29.72,North,360,13.0,22.0,59,0.00,,,0.00,,2013-05-21 20:42:00,
2013-05-21 15:52:00,59.0,45.0,29.72,NNW,340,10.0,22.0,59,0.00,,,0.00,,2013-05-21 20:52:00,
2013-05-21 16:02:00,59.0,45.0,29.71,North,355,11.0,19.0,60,0.00,,,0.00,,2013-05-21 21:02:00,
2013-05-21 16:11:00,59.0,45.0,29.71,North,355,11.0,19.0,60,0.00,,,0.00,,2013-05-21 21:11:00,
2013-05-21 16:21:00,58.0,45.0,29.72,North,355,11.0,19.0,61,0.00,,,0.00,,2013-05-21 21:21:00,
2013-05-21 16:33:00,57.0,45.0,29.72,NNW,342,10.0,19.0,63,0.00,,,0.00,,2013-05-21 21:33:00,
2013-05-21 16:43:00,57.0,45.0,29.72,NNW,342,10.0,19.0,63,0.00,,,0.00,,2013-05-21 21:43:00,
2013-05-21 16:53:00,57.0,45.0,29.72,NNW,344,9.0,18.0,63,0.00,,,0.00,,2013-05-21 21:53:00,
2013-05-21 17:02:00,58.0,45.0,29.72,North,5,7.0,15.0,63,0.00,,,0.00,,2013-05-21 22:02:00,
2013-05-21 17:12:00,58.0,45.0,29.72,North,5,7.0,15.0,63,0.00,,,0.00,,2013-05-21 22:12:00,
2013-05-21 17:22:00,58.0,45.0,29.72,North,360,9.0,19.0,62,0.00,,,0.00,,2013-05-21 22:22:00,
2013-05-21 17:33:00,58.0,45.0,29.72,NNE,21,8.0,17.0,62,0.00,,,0.00,,2013-05-21 22:33:00,
2013-05-21 17:42:00,58.0,45.0,29.72,NNE,21,8.0,17.0,62,0.00,,,0.00,,2013-05-21 22:42:00,
2013-05-21 17:52:00,58.0,45.0,29.73,North,351,8.0,19.0,62,0.00,,,0.00,,2013-05-21 22:52:00,
2013-05-21 18:02:00,58.0,45.0,29.72,NNE,17,9.0,15.0,62,0.00,,,0.00,,2013-05-21 23:02:00,
2013-05-21 18:12:00,58.0,45.0,29.72,NNE,17,9.0,15.0,62,0.00,,,0.00,,2013-05-21 23:12:00,
2013-05-21 18:22:00,58.0,45.0,29.73,NNW,348,8.0,15.0,62,0.00,,,0.00,,2013-05-21 23:22:00,
2013-05-21 18:32:00,57.0,45.0,29.75,NW,311,6.0,15.0,64,0.00,,,0.00,,2013-05-21 23:32:00,
2013-05-21 18:42:00,57.0,45.0,29.75,NNE,17,7.0,13.0,64,0.00,,,0.00,,2013-05-21 23:42:00,
2013-05-21 18:52:00,57.0,45.0,29.75,NNE,17,7.0,13.0,64,0.00,,,0.00,,2013-05-21 23:52:00,
2013-05-21 19:01:00,57.0,45.0,29.75,North,5,6.0,12.0,64,0.00,,,0.00,,2013-05-22 00:01:00,
2013-05-21 19:11:00,57.0,45.0,29.75,North,5,6.0,12.0,64,0.00,,,0.00,,2013-05-22 00:11:00,
2013-05-21 19:21:00,57.0,45.0,29.75,NNE,13,7.0,12.0,65,0.00,,,0.00,,2013-05-22 00:21:00,
2013-05-21 19:32:00,57.0,46.0,29.76,North,360,5.0,11.0,66,0.00,,,0.00,,2013-05-22 00:32:00,
2013-05-21 19:41:00,57.0,46.0,29.76,North,360,5.0,11.0,66,0.00,,,0.00,,2013-05-22 00:41:00,
2013-05-21 19:51:00,56.0,44.0,29.76,North,360,7.0,12.0,65,0.00,,,0.00,,2013-05-22 00:51:00,
2013-05-21 20:01:00,56.0,46.0,29.76,North,5,5.0,12.0,68,0.00,,,0.00,,2013-05-22 01:01:00,
2013-05-21 20:11:00,56.0,46.0,29.76,North,5,5.0,12.0,68,0.00,,,0.00,,2013-05-22 01:11:00,
2013-05-21 20:21:00,56.0,46.0,29.76,NNE,16,8.0,15.0,68,0.00,,,0.00,,2013-05-22 01:21:00,
2013-05-21 20:32:00,55.0,45.0,29.77,NNE,24,9.0,14.0,68,0.00,,,0.00,,2013-05-22 01:32:00,
2013-05-21 20:41:00,55.0,45.0,29.77,NNE,24,9.0,14.0,68,0.00,,,0.00,,2013-05-22 01:41:00,
2013-05-21 20:52:00,55.0,45.0,29.77,North,10,8.0,16.0,70,0.00,,,0.00,,2013-05-22 01:52:00,
2013-05-21 21:01:00,53.0,45.0,29.78,North,5,6.0,13.0,75,0.00,,,0.00,,2013-05-22 02:01:00,
2013-05-21 21:11:00,53.0,45.0,29.78,North,5,6.0,13.0,75,0.00,,,0.00,,2013-05-22 02:11:00,
2013-05-21 21:21:00,53.0,45.0,29.78,North,5,7.0,10.0,74,0.00,,,0.00,,2013-05-22 02:21:00,
2013-05-21 21:32:00,53.0,45.0,29.78,NNE,31,6.0,12.0,74,0.00,,,0.00,,2013-05-22 02:32:00,
2013-05-21 21:42:00,53.0,45.0,29.79,NNE,19,8.0,14.0,75,0.00,,,0.00,,2013-05-22 02:42:00,
2013-05-21 21:51:00,53.0,45.0,29.79,NNE,19,8.0,14.0,75,0.00,,,0.00,,2013-05-22 02:51:00,
2013-05-21 22:01:00,53.0,46.0,29.80,NNE,15,8.0,13.0,76,0.00,,,0.00,,2013-05-22 03:01:00,
2013-05-21 22:11:00,53.0,46.0,29.80,NNE,15,8.0,13.0,76,0.00,,,0.00,,2013-05-22 03:11:00,
2013-05-21 22:21:00,52.0,45.0,29.80,NNE,22,6.0,15.0,76,0.00,,,0.00,,2013-05-22 03:21:00,
2013-05-21 22:33:00,51.0,44.0,29.81,North,355,7.0,13.0,77,0.00,,,0.00,,2013-05-22 03:33:00,
2013-05-21 22:43:00,51.0,45.0,29.81,NNW,348,5.0,11.0,79,0.00,,,0.00,,2013-05-22 03:43:00,
2013-05-21 22:53:00,51.0,45.0,29.81,NNW,348,5.0,11.0,79,0.00,,,0.00,,2013-05-22 03:53:00,
2013-05-21 23:03:00,50.0,44.0,29.81,NNE,17,6.0,13.0,79,0.00,,,0.00,,2013-05-22 04:03:00,
2013-05-21 23:13:00,50.0,44.0,29.81,NNE,17,6.0,13.0,79,0.00,,,0.00,,2013-05-22 04:13:00,
2013-05-21 23:23:00,50.0,44.0,29.81,NNW,343,5.0,9.0,80,0.00,,,0.00,,2013-05-22 04:23:00,
2013-05-21 23:33:00,49.0,43.0,29.81,North,351,8.0,13.0,81,0.00,,,0.00,,2013-05-22 04:33:00,
2013-05-21 23:43:00,49.0,44.0,29.80,NNE,23,7.0,11.0,82,0.00,,,0.00,,2013-05-22 04:43:00,
2013-05-21 23:53:00,49.0,44.0,29.80,NNE,23,7.0,11.0,82,0.00,,,0.00,,2013-05-22 04:53:00,